sensor_id;sensor_type;location;lat;lon;timestamp;P1;durP1;ratioP1;P2;durP2;ratioP2
74042;SDS011;62384;53.600;10.040;2023-03-21T00:00:15;30.92;;;13.57;;
74042;SDS011;62384;53.600;10.040;2023-03-21T00:02:41;30.50;;;13.73;;
74042;SDS011;62384;53.600;10.040;2023-03-21T00:05:07;33.88;;;14.13;;
74042;SDS011;62384;53.600;10.040;2023-03-21T00:07:32;30.33;;;13.52;;
74042;SDS011;62384;53.600;10.040;2023-03-21T00:09:57;30.20;;;12.52;;
74042;SDS011;62384;53.600;10.040;2023-03-21T00:12:23;31.92;;;14.45;;
74042;SDS011;62384;53.600;10.040;2023-03-21T00:14:48;34.63;;;13.77;;
74042;SDS011;62384;53.600;10.040;2023-03-21T00:17:14;34.10;;;14.60;;
74042;SDS011;62384;53.600;10.040;2023-03-21T00:19:40;35.60;;;13.18;;
74042;SDS011;62384;53.600;10.040;2023-03-21T00:22:05;32.15;;;13.52;;
74042;SDS011;62384;53.600;10.040;2023-03-21T00:24:32;34.88;;;13.95;;
74042;SDS011;62384;53.600;10.040;2023-03-21T00:26:57;32.30;;;14.40;;
74042;SDS011;62384;53.600;10.040;2023-03-21T00:29:22;33.25;;;14.15;;
74042;SDS011;62384;53.600;10.040;2023-03-21T00:31:48;35.28;;;14.70;;
74042;SDS011;62384;53.600;10.040;2023-03-21T00:34:13;33.00;;;14.57;;
74042;SDS011;62384;53.600;10.040;2023-03-21T00:36:38;38.88;;;16.40;;
74042;SDS011;62384;53.600;10.040;2023-03-21T00:39:04;38.78;;;16.25;;
74042;SDS011;62384;53.600;10.040;2023-03-21T00:41:30;43.00;;;16.88;;
74042;SDS011;62384;53.600;10.040;2023-03-21T00:43:56;37.05;;;16.13;;
74042;SDS011;62384;53.600;10.040;2023-03-21T00:46:21;37.90;;;14.95;;
74042;SDS011;62384;53.600;10.040;2023-03-21T00:48:46;42.92;;;17.30;;
74042;SDS011;62384;53.600;10.040;2023-03-21T00:51:13;38.53;;;16.35;;
74042;SDS011;62384;53.600;10.040;2023-03-21T00:53:45;39.25;;;17.15;;
74042;SDS011;62384;53.600;10.040;2023-03-21T00:56:10;43.10;;;17.27;;
74042;SDS011;62384;53.600;10.040;2023-03-21T00:58:36;40.53;;;16.40;;
74042;SDS011;62384;53.600;10.040;2023-03-21T01:01:01;43.15;;;16.70;;
74042;SDS011;62384;53.600;10.040;2023-03-21T01:03:28;39.10;;;17.25;;
74042;SDS011;62384;53.600;10.040;2023-03-21T01:05:53;37.90;;;17.77;;
74042;SDS011;62384;53.600;10.040;2023-03-21T01:08:29;40.97;;;16.63;;
74042;SDS011;62384;53.600;10.040;2023-03-21T01:10:55;43.75;;;17.00;;
74042;SDS011;62384;53.600;10.040;2023-03-21T01:13:24;38.78;;;16.73;;
74042;SDS011;62384;53.600;10.040;2023-03-21T01:15:51;42.22;;;18.30;;
74042;SDS011;62384;53.600;10.040;2023-03-21T01:18:18;41.78;;;18.65;;
74042;SDS011;62384;53.600;10.040;2023-03-21T01:20:46;42.08;;;16.95;;
74042;SDS011;62384;53.600;10.040;2023-03-21T01:23:12;39.00;;;16.25;;
74042;SDS011;62384;53.600;10.040;2023-03-21T01:25:39;46.70;;;18.83;;
74042;SDS011;62384;53.600;10.040;2023-03-21T01:28:05;44.05;;;18.98;;
74042;SDS011;62384;53.600;10.040;2023-03-21T01:30:30;45.13;;;19.08;;
74042;SDS011;62384;53.600;10.040;2023-03-21T01:32:55;46.85;;;18.65;;
74042;SDS011;62384;53.600;10.040;2023-03-21T01:35:21;44.05;;;17.85;;
74042;SDS011;62384;53.600;10.040;2023-03-21T01:37:46;42.50;;;17.83;;
74042;SDS011;62384;53.600;10.040;2023-03-21T01:40:23;47.65;;;18.33;;
74042;SDS011;62384;53.600;10.040;2023-03-21T01:42:50;43.42;;;18.83;;
74042;SDS011;62384;53.600;10.040;2023-03-21T01:48:18;41.92;;;18.60;;
74042;SDS011;62384;53.600;10.040;2023-03-21T01:50:46;49.80;;;19.15;;
74042;SDS011;62384;53.600;10.040;2023-03-21T01:53:11;46.13;;;19.25;;
74042;SDS011;62384;53.600;10.040;2023-03-21T01:55:38;45.30;;;19.30;;
74042;SDS011;62384;53.600;10.040;2023-03-21T01:58:05;43.47;;;18.40;;
74042;SDS011;62384;53.600;10.040;2023-03-21T02:00:33;43.97;;;18.45;;
74042;SDS011;62384;53.600;10.040;2023-03-21T02:03:01;43.33;;;19.23;;
74042;SDS011;62384;53.600;10.040;2023-03-21T02:05:49;46.90;;;19.52;;
74042;SDS011;62384;53.600;10.040;2023-03-21T02:08:26;48.20;;;18.63;;
74042;SDS011;62384;53.600;10.040;2023-03-21T02:10:53;44.10;;;19.10;;
74042;SDS011;62384;53.600;10.040;2023-03-21T02:13:19;45.63;;;19.92;;
74042;SDS011;62384;53.600;10.040;2023-03-21T02:15:45;48.97;;;20.08;;
74042;SDS011;62384;53.600;10.040;2023-03-21T02:18:29;49.95;;;20.73;;
74042;SDS011;62384;53.600;10.040;2023-03-21T02:23:55;49.83;;;20.42;;
74042;SDS011;62384;53.600;10.040;2023-03-21T02:26:55;52.78;;;20.05;;
74042;SDS011;62384;53.600;10.040;2023-03-21T02:29:49;48.53;;;19.42;;
74042;SDS011;62384;53.600;10.040;2023-03-21T02:35:13;45.65;;;19.73;;
74042;SDS011;62384;53.600;10.040;2023-03-21T02:38:08;46.67;;;19.58;;
74042;SDS011;62384;53.600;10.040;2023-03-21T02:40:50;51.58;;;20.38;;
74042;SDS011;62384;53.600;10.040;2023-03-21T02:43:22;47.20;;;17.98;;
74042;SDS011;62384;53.600;10.040;2023-03-21T02:45:56;56.05;;;19.80;;
74042;SDS011;62384;53.600;10.040;2023-03-21T02:48:37;45.75;;;19.70;;
74042;SDS011;62384;53.600;10.040;2023-03-21T02:51:05;47.90;;;20.80;;
74042;SDS011;62384;53.600;10.040;2023-03-21T02:53:35;48.33;;;20.27;;
74042;SDS011;62384;53.600;10.040;2023-03-21T02:56:02;51.95;;;19.95;;
74042;SDS011;62384;53.600;10.040;2023-03-21T02:58:28;47.72;;;19.98;;
74042;SDS011;62384;53.600;10.040;2023-03-21T03:00:56;48.35;;;19.23;;
74042;SDS011;62384;53.600;10.040;2023-03-21T03:03:21;45.83;;;19.60;;
74042;SDS011;62384;53.600;10.040;2023-03-21T03:05:48;49.17;;;18.40;;
74042;SDS011;62384;53.600;10.040;2023-03-21T03:16:24;49.45;;;19.75;;
74042;SDS011;62384;53.600;10.040;2023-03-21T03:19:09;51.38;;;20.92;;
74042;SDS011;62384;53.600;10.040;2023-03-21T03:21:39;49.08;;;19.08;;
74042;SDS011;62384;53.600;10.040;2023-03-21T03:24:18;49.05;;;19.48;;
74042;SDS011;62384;53.600;10.040;2023-03-21T03:26:56;48.23;;;19.23;;
74042;SDS011;62384;53.600;10.040;2023-03-21T03:29:26;42.95;;;19.15;;
74042;SDS011;62384;53.600;10.040;2023-03-21T03:31:55;47.80;;;19.25;;
74042;SDS011;62384;53.600;10.040;2023-03-21T03:34:26;50.78;;;20.45;;
74042;SDS011;62384;53.600;10.040;2023-03-21T03:36:58;52.63;;;19.30;;
74042;SDS011;62384;53.600;10.040;2023-03-21T03:39:29;48.80;;;20.05;;
74042;SDS011;62384;53.600;10.040;2023-03-21T03:42:01;49.92;;;20.30;;
74042;SDS011;62384;53.600;10.040;2023-03-21T03:44:30;50.30;;;19.60;;
74042;SDS011;62384;53.600;10.040;2023-03-21T03:47:09;53.60;;;21.75;;
74042;SDS011;62384;53.600;10.040;2023-03-21T03:49:42;47.72;;;19.90;;
74042;SDS011;62384;53.600;10.040;2023-03-21T03:54:43;42.53;;;18.25;;
74042;SDS011;62384;53.600;10.040;2023-03-21T03:57:10;45.28;;;19.33;;
74042;SDS011;62384;53.600;10.040;2023-03-21T03:59:38;50.70;;;19.80;;
74042;SDS011;62384;53.600;10.040;2023-03-21T04:02:05;53.42;;;20.17;;
74042;SDS011;62384;53.600;10.040;2023-03-21T04:04:31;50.92;;;19.63;;
74042;SDS011;62384;53.600;10.040;2023-03-21T04:06:56;47.78;;;19.73;;
74042;SDS011;62384;53.600;10.040;2023-03-21T04:09:21;47.17;;;18.42;;
74042;SDS011;62384;53.600;10.040;2023-03-21T04:11:47;45.92;;;18.75;;
74042;SDS011;62384;53.600;10.040;2023-03-21T04:14:13;45.45;;;18.67;;
74042;SDS011;62384;53.600;10.040;2023-03-21T04:16:38;47.10;;;18.02;;
74042;SDS011;62384;53.600;10.040;2023-03-21T04:19:03;40.53;;;16.80;;
74042;SDS011;62384;53.600;10.040;2023-03-21T04:21:29;44.08;;;17.23;;
74042;SDS011;62384;53.600;10.040;2023-03-21T04:23:54;45.25;;;18.90;;
74042;SDS011;62384;53.600;10.040;2023-03-21T04:26:20;45.53;;;18.15;;
74042;SDS011;62384;53.600;10.040;2023-03-21T04:28:46;43.58;;;18.58;;
74042;SDS011;62384;53.600;10.040;2023-03-21T04:31:12;42.78;;;18.25;;
74042;SDS011;62384;53.600;10.040;2023-03-21T04:33:38;50.92;;;18.60;;
74042;SDS011;62384;53.600;10.040;2023-03-21T04:36:07;46.42;;;18.98;;
74042;SDS011;62384;53.600;10.040;2023-03-21T04:38:33;46.13;;;18.95;;
74042;SDS011;62384;53.600;10.040;2023-03-21T04:40:59;43.38;;;18.10;;
74042;SDS011;62384;53.600;10.040;2023-03-21T04:43:26;46.78;;;17.17;;
74042;SDS011;62384;53.600;10.040;2023-03-21T04:45:52;52.35;;;20.38;;
74042;SDS011;62384;53.600;10.040;2023-03-21T04:48:18;48.97;;;20.17;;
74042;SDS011;62384;53.600;10.040;2023-03-21T04:50:43;44.88;;;18.73;;
74042;SDS011;62384;53.600;10.040;2023-03-21T04:53:10;47.47;;;19.17;;
74042;SDS011;62384;53.600;10.040;2023-03-21T04:55:35;47.28;;;18.55;;
74042;SDS011;62384;53.600;10.040;2023-03-21T04:58:04;47.85;;;18.40;;
74042;SDS011;62384;53.600;10.040;2023-03-21T05:00:29;50.17;;;19.40;;
74042;SDS011;62384;53.600;10.040;2023-03-21T05:02:56;45.53;;;18.88;;
74042;SDS011;62384;53.600;10.040;2023-03-21T05:05:22;47.05;;;19.35;;
74042;SDS011;62384;53.600;10.040;2023-03-21T05:07:48;48.03;;;19.00;;
74042;SDS011;62384;53.600;10.040;2023-03-21T05:10:13;45.80;;;18.45;;
74042;SDS011;62384;53.600;10.040;2023-03-21T05:12:39;41.85;;;18.08;;
74042;SDS011;62384;53.600;10.040;2023-03-21T05:15:05;42.97;;;17.08;;
74042;SDS011;62384;53.600;10.040;2023-03-21T05:17:31;39.15;;;17.02;;
74042;SDS011;62384;53.600;10.040;2023-03-21T05:19:56;42.00;;;18.40;;
74042;SDS011;62384;53.600;10.040;2023-03-21T05:22:22;40.72;;;16.85;;
74042;SDS011;62384;53.600;10.040;2023-03-21T05:24:51;42.17;;;18.70;;
74042;SDS011;62384;53.600;10.040;2023-03-21T05:27:19;44.47;;;17.98;;
74042;SDS011;62384;53.600;10.040;2023-03-21T05:29:58;44.33;;;17.60;;
74042;SDS011;62384;53.600;10.040;2023-03-21T05:32:41;42.35;;;18.13;;
74042;SDS011;62384;53.600;10.040;2023-03-21T05:35:07;44.63;;;18.02;;
74042;SDS011;62384;53.600;10.040;2023-03-21T05:37:33;41.72;;;18.90;;
74042;SDS011;62384;53.600;10.040;2023-03-21T05:39:59;47.70;;;19.10;;
74042;SDS011;62384;53.600;10.040;2023-03-21T05:42:25;46.53;;;18.45;;
74042;SDS011;62384;53.600;10.040;2023-03-21T05:44:50;41.63;;;17.45;;
74042;SDS011;62384;53.600;10.040;2023-03-21T05:47:16;44.75;;;17.88;;
74042;SDS011;62384;53.600;10.040;2023-03-21T05:49:42;46.08;;;19.02;;
74042;SDS011;62384;53.600;10.040;2023-03-21T05:52:08;49.13;;;20.00;;
74042;SDS011;62384;53.600;10.040;2023-03-21T05:54:34;48.20;;;18.35;;
74042;SDS011;62384;53.600;10.040;2023-03-21T05:57:00;45.78;;;19.23;;
74042;SDS011;62384;53.600;10.040;2023-03-21T05:59:25;46.17;;;19.98;;
74042;SDS011;62384;53.600;10.040;2023-03-21T06:01:50;46.50;;;20.02;;
74042;SDS011;62384;53.600;10.040;2023-03-21T06:04:15;46.85;;;19.85;;
74042;SDS011;62384;53.600;10.040;2023-03-21T06:06:41;48.08;;;20.63;;
74042;SDS011;62384;53.600;10.040;2023-03-21T06:09:06;48.42;;;22.02;;
74042;SDS011;62384;53.600;10.040;2023-03-21T06:11:32;46.03;;;21.02;;
74042;SDS011;62384;53.600;10.040;2023-03-21T06:14:00;51.92;;;20.90;;
74042;SDS011;62384;53.600;10.040;2023-03-21T06:16:26;47.47;;;19.45;;
74042;SDS011;62384;53.600;10.040;2023-03-21T06:18:52;44.40;;;18.65;;
74042;SDS011;62384;53.600;10.040;2023-03-21T06:21:18;48.03;;;20.38;;
74042;SDS011;62384;53.600;10.040;2023-03-21T06:23:43;48.88;;;19.52;;
74042;SDS011;62384;53.600;10.040;2023-03-21T06:26:08;50.80;;;22.15;;
74042;SDS011;62384;53.600;10.040;2023-03-21T06:28:33;55.97;;;22.42;;
74042;SDS011;62384;53.600;10.040;2023-03-21T06:30:59;68.07;;;24.77;;
74042;SDS011;62384;53.600;10.040;2023-03-21T06:33:24;54.42;;;22.42;;
74042;SDS011;62384;53.600;10.040;2023-03-21T06:35:51;56.35;;;22.90;;
74042;SDS011;62384;53.600;10.040;2023-03-21T06:38:17;60.60;;;22.25;;
74042;SDS011;62384;53.600;10.040;2023-03-21T06:40:44;58.05;;;25.38;;
74042;SDS011;62384;53.600;10.040;2023-03-21T06:43:10;55.50;;;22.17;;
74042;SDS011;62384;53.600;10.040;2023-03-21T06:45:35;57.72;;;23.27;;
74042;SDS011;62384;53.600;10.040;2023-03-21T06:48:00;56.97;;;23.85;;
74042;SDS011;62384;53.600;10.040;2023-03-21T06:50:25;57.92;;;23.20;;
74042;SDS011;62384;53.600;10.040;2023-03-21T06:52:51;56.05;;;22.80;;
74042;SDS011;62384;53.600;10.040;2023-03-21T06:55:16;57.30;;;23.58;;
74042;SDS011;62384;53.600;10.040;2023-03-21T06:57:43;60.47;;;24.83;;
74042;SDS011;62384;53.600;10.040;2023-03-21T07:00:10;60.67;;;24.58;;
74042;SDS011;62384;53.600;10.040;2023-03-21T07:02:36;58.83;;;23.52;;
74042;SDS011;62384;53.600;10.040;2023-03-21T07:05:01;66.40;;;26.10;;
74042;SDS011;62384;53.600;10.040;2023-03-21T07:07:27;61.03;;;24.75;;
74042;SDS011;62384;53.600;10.040;2023-03-21T07:09:53;64.47;;;24.65;;
74042;SDS011;62384;53.600;10.040;2023-03-21T07:12:19;63.03;;;24.77;;
74042;SDS011;62384;53.600;10.040;2023-03-21T07:14:45;58.25;;;25.27;;
74042;SDS011;62384;53.600;10.040;2023-03-21T07:17:11;65.38;;;25.23;;
74042;SDS011;62384;53.600;10.040;2023-03-21T07:19:36;58.13;;;25.83;;
74042;SDS011;62384;53.600;10.040;2023-03-21T07:22:01;61.13;;;23.15;;
74042;SDS011;62384;53.600;10.040;2023-03-21T07:24:26;62.50;;;24.98;;
74042;SDS011;62384;53.600;10.040;2023-03-21T07:26:52;67.30;;;25.08;;
74042;SDS011;62384;53.600;10.040;2023-03-21T07:29:17;64.57;;;26.38;;
74042;SDS011;62384;53.600;10.040;2023-03-21T07:31:45;60.28;;;25.55;;
74042;SDS011;62384;53.600;10.040;2023-03-21T07:34:10;61.50;;;25.73;;
74042;SDS011;62384;53.600;10.040;2023-03-21T07:36:36;61.30;;;25.60;;
74042;SDS011;62384;53.600;10.040;2023-03-21T07:39:01;53.05;;;22.23;;
74042;SDS011;62384;53.600;10.040;2023-03-21T07:41:28;46.85;;;20.75;;
74042;SDS011;62384;53.600;10.040;2023-03-21T07:43:53;54.00;;;21.55;;
74042;SDS011;62384;53.600;10.040;2023-03-21T07:46:18;56.42;;;23.92;;
74042;SDS011;62384;53.600;10.040;2023-03-21T07:48:43;57.28;;;23.92;;
74042;SDS011;62384;53.600;10.040;2023-03-21T07:51:08;54.35;;;23.05;;
74042;SDS011;62384;53.600;10.040;2023-03-21T07:53:34;49.55;;;21.98;;
74042;SDS011;62384;53.600;10.040;2023-03-21T07:55:59;54.95;;;22.17;;
74042;SDS011;62384;53.600;10.040;2023-03-21T07:58:24;51.58;;;20.77;;
74042;SDS011;62384;53.600;10.040;2023-03-21T08:00:51;49.38;;;21.00;;
74042;SDS011;62384;53.600;10.040;2023-03-21T08:03:17;50.42;;;21.70;;
74042;SDS011;62384;53.600;10.040;2023-03-21T08:05:42;44.88;;;20.45;;
74042;SDS011;62384;53.600;10.040;2023-03-21T08:08:08;52.08;;;21.67;;
74042;SDS011;62384;53.600;10.040;2023-03-21T08:10:33;52.45;;;22.15;;
74042;SDS011;62384;53.600;10.040;2023-03-21T08:12:58;45.88;;;20.15;;
74042;SDS011;62384;53.600;10.040;2023-03-21T08:15:24;58.00;;;23.67;;
74042;SDS011;62384;53.600;10.040;2023-03-21T08:17:49;55.53;;;22.35;;
74042;SDS011;62384;53.600;10.040;2023-03-21T08:20:16;51.63;;;21.75;;
74042;SDS011;62384;53.600;10.040;2023-03-21T08:22:42;48.22;;;20.60;;
74042;SDS011;62384;53.600;10.040;2023-03-21T08:25:08;51.35;;;22.02;;
74042;SDS011;62384;53.600;10.040;2023-03-21T08:27:37;53.10;;;22.17;;
74042;SDS011;62384;53.600;10.040;2023-03-21T08:30:04;45.53;;;20.10;;
74042;SDS011;62384;53.600;10.040;2023-03-21T08:32:30;57.08;;;22.42;;
74042;SDS011;62384;53.600;10.040;2023-03-21T08:34:57;47.22;;;20.20;;
74042;SDS011;62384;53.600;10.040;2023-03-21T08:37:23;53.15;;;22.25;;
74042;SDS011;62384;53.600;10.040;2023-03-21T08:39:49;48.72;;;20.73;;
74042;SDS011;62384;53.600;10.040;2023-03-21T08:42:15;49.40;;;21.20;;
74042;SDS011;62384;53.600;10.040;2023-03-21T08:44:41;49.45;;;21.13;;
74042;SDS011;62384;53.600;10.040;2023-03-21T08:47:06;51.95;;;20.98;;
74042;SDS011;62384;53.600;10.040;2023-03-21T08:49:32;48.88;;;21.30;;
74042;SDS011;62384;53.600;10.040;2023-03-21T08:51:59;52.35;;;23.02;;
74042;SDS011;62384;53.600;10.040;2023-03-21T08:54:24;58.58;;;24.48;;
74042;SDS011;62384;53.600;10.040;2023-03-21T08:56:49;55.38;;;22.95;;
74042;SDS011;62384;53.600;10.040;2023-03-21T08:59:15;52.90;;;22.75;;
74042;SDS011;62384;53.600;10.040;2023-03-21T09:01:40;58.38;;;23.30;;
74042;SDS011;62384;53.600;10.040;2023-03-21T09:04:06;45.92;;;21.15;;
74042;SDS011;62384;53.600;10.040;2023-03-21T09:06:34;49.30;;;19.92;;
74042;SDS011;62384;53.600;10.040;2023-03-21T09:09:00;49.70;;;21.58;;
74042;SDS011;62384;53.600;10.040;2023-03-21T09:11:25;47.58;;;20.73;;
74042;SDS011;62384;53.600;10.040;2023-03-21T09:13:51;44.63;;;19.40;;
74042;SDS011;62384;53.600;10.040;2023-03-21T09:16:16;45.25;;;20.20;;
74042;SDS011;62384;53.600;10.040;2023-03-21T09:18:41;43.80;;;19.65;;
74042;SDS011;62384;53.600;10.040;2023-03-21T09:21:14;42.83;;;19.45;;
74042;SDS011;62384;53.600;10.040;2023-03-21T09:23:42;46.10;;;20.57;;
74042;SDS011;62384;53.600;10.040;2023-03-21T09:26:11;46.88;;;19.67;;
74042;SDS011;62384;53.600;10.040;2023-03-21T09:28:37;46.80;;;19.60;;
74042;SDS011;62384;53.600;10.040;2023-03-21T09:31:03;41.58;;;20.63;;
74042;SDS011;62384;53.600;10.040;2023-03-21T09:33:29;47.88;;;21.10;;
74042;SDS011;62384;53.600;10.040;2023-03-21T09:35:55;51.13;;;20.70;;
74042;SDS011;62384;53.600;10.040;2023-03-21T09:38:22;49.60;;;21.48;;
74042;SDS011;62384;53.600;10.040;2023-03-21T09:43:48;48.10;;;20.30;;
74042;SDS011;62384;53.600;10.040;2023-03-21T09:46:35;43.78;;;19.73;;
74042;SDS011;62384;53.600;10.040;2023-03-21T09:49:14;42.83;;;18.85;;
74042;SDS011;62384;53.600;10.040;2023-03-21T09:51:44;44.63;;;19.83;;
74042;SDS011;62384;53.600;10.040;2023-03-21T09:54:12;44.08;;;18.75;;
74042;SDS011;62384;53.600;10.040;2023-03-21T09:56:45;43.00;;;19.85;;
74042;SDS011;62384;53.600;10.040;2023-03-21T09:59:19;46.58;;;19.38;;
74042;SDS011;62384;53.600;10.040;2023-03-21T10:01:49;45.58;;;18.80;;
74042;SDS011;62384;53.600;10.040;2023-03-21T10:04:15;44.28;;;19.75;;
74042;SDS011;62384;53.600;10.040;2023-03-21T10:06:42;45.03;;;18.60;;
74042;SDS011;62384;53.600;10.040;2023-03-21T10:12:03;45.22;;;18.67;;
74042;SDS011;62384;53.600;10.040;2023-03-21T10:14:36;42.75;;;18.63;;
74042;SDS011;62384;53.600;10.040;2023-03-21T10:20:25;45.05;;;18.73;;
74042;SDS011;62384;53.600;10.040;2023-03-21T10:22:43;47.45;;;20.52;;
74042;SDS011;62384;53.600;10.040;2023-03-21T10:25:12;42.03;;;19.20;;
74042;SDS011;62384;53.600;10.040;2023-03-21T10:27:46;44.38;;;17.77;;
74042;SDS011;62384;53.600;10.040;2023-03-21T10:30:47;44.33;;;18.35;;
74042;SDS011;62384;53.600;10.040;2023-03-21T10:33:16;40.13;;;18.13;;
74042;SDS011;62384;53.600;10.040;2023-03-21T10:35:45;46.08;;;18.98;;
74042;SDS011;62384;53.600;10.040;2023-03-21T10:38:17;38.47;;;18.10;;
74042;SDS011;62384;53.600;10.040;2023-03-21T10:40:44;39.17;;;16.55;;
74042;SDS011;62384;53.600;10.040;2023-03-21T10:43:15;51.83;;;18.58;;
74042;SDS011;62384;53.600;10.040;2023-03-21T10:45:49;48.10;;;17.83;;
74042;SDS011;62384;53.600;10.040;2023-03-21T10:48:15;38.05;;;17.45;;
74042;SDS011;62384;53.600;10.040;2023-03-21T10:50:40;37.10;;;16.25;;
74042;SDS011;62384;53.600;10.040;2023-03-21T10:53:12;41.50;;;17.52;;
74042;SDS011;62384;53.600;10.040;2023-03-21T10:55:41;41.10;;;18.33;;
74042;SDS011;62384;53.600;10.040;2023-03-21T10:58:07;33.53;;;14.95;;
74042;SDS011;62384;53.600;10.040;2023-03-21T11:00:43;37.97;;;16.67;;
74042;SDS011;62384;53.600;10.040;2023-03-21T11:03:20;43.88;;;16.13;;
74042;SDS011;62384;53.600;10.040;2023-03-21T11:05:47;34.38;;;15.90;;
74042;SDS011;62384;53.600;10.040;2023-03-21T11:08:17;38.83;;;16.13;;
74042;SDS011;62384;53.600;10.040;2023-03-21T11:10:48;35.75;;;16.75;;
74042;SDS011;62384;53.600;10.040;2023-03-21T11:13:35;41.27;;;17.00;;
74042;SDS011;62384;53.600;10.040;2023-03-21T11:16:04;38.05;;;15.25;;
74042;SDS011;62384;53.600;10.040;2023-03-21T11:18:32;34.00;;;14.93;;
74042;SDS011;62384;53.600;10.040;2023-03-21T11:21:08;37.58;;;16.08;;
74042;SDS011;62384;53.600;10.040;2023-03-21T11:23:37;36.42;;;14.93;;
74042;SDS011;62384;53.600;10.040;2023-03-21T11:28:38;36.40;;;16.20;;
74042;SDS011;62384;53.600;10.040;2023-03-21T11:31:05;40.70;;;16.63;;
74042;SDS011;62384;53.600;10.040;2023-03-21T11:33:36;38.70;;;16.13;;
74042;SDS011;62384;53.600;10.040;2023-03-21T11:38:33;35.67;;;15.27;;
74042;SDS011;62384;53.600;10.040;2023-03-21T11:41:02;37.72;;;15.95;;
74042;SDS011;62384;53.600;10.040;2023-03-21T11:43:29;39.72;;;15.75;;
74042;SDS011;62384;53.600;10.040;2023-03-21T11:48:37;36.80;;;15.57;;
74042;SDS011;62384;53.600;10.040;2023-03-21T11:51:27;35.40;;;16.55;;
74042;SDS011;62384;53.600;10.040;2023-03-21T11:56:44;37.95;;;16.60;;
74042;SDS011;62384;53.600;10.040;2023-03-21T12:21:30;37.15;;;16.42;;
74042;SDS011;62384;53.600;10.040;2023-03-21T12:24:08;32.97;;;14.82;;
74042;SDS011;62384;53.600;10.040;2023-03-21T12:26:49;39.80;;;16.40;;
74042;SDS011;62384;53.600;10.040;2023-03-21T12:29:35;29.25;;;12.60;;
74042;SDS011;62384;53.600;10.040;2023-03-21T12:40:48;23.40;;;11.43;;
74042;SDS011;62384;53.600;10.040;2023-03-21T12:46:29;26.40;;;10.63;;
74042;SDS011;62384;53.600;10.040;2023-03-21T12:49:01;23.23;;;10.40;;
74042;SDS011;62384;53.600;10.040;2023-03-21T12:51:32;24.83;;;10.55;;
74042;SDS011;62384;53.600;10.040;2023-03-21T12:56:47;22.33;;;10.63;;
74042;SDS011;62384;53.600;10.040;2023-03-21T12:59:18;20.52;;;9.80;;
74042;SDS011;62384;53.600;10.040;2023-03-21T13:01:47;22.07;;;10.30;;
74042;SDS011;62384;53.600;10.040;2023-03-21T13:07:04;21.15;;;9.15;;
74042;SDS011;62384;53.600;10.040;2023-03-21T13:09:35;17.27;;;8.93;;
74042;SDS011;62384;53.600;10.040;2023-03-21T13:12:12;21.35;;;9.95;;
74042;SDS011;62384;53.600;10.040;2023-03-21T13:15:11;16.10;;;8.57;;
74042;SDS011;62384;53.600;10.040;2023-03-21T13:17:33;19.83;;;9.00;;
74042;SDS011;62384;53.600;10.040;2023-03-21T13:20:21;18.48;;;9.43;;
74042;SDS011;62384;53.600;10.040;2023-03-21T13:22:50;16.27;;;8.65;;
74042;SDS011;62384;53.600;10.040;2023-03-21T13:25:16;18.75;;;9.00;;
74042;SDS011;62384;53.600;10.040;2023-03-21T13:27:54;16.30;;;8.27;;
74042;SDS011;62384;53.600;10.040;2023-03-21T13:30:27;17.30;;;8.35;;
74042;SDS011;62384;53.600;10.040;2023-03-21T13:33:02;19.95;;;8.70;;
74042;SDS011;62384;53.600;10.040;2023-03-21T13:35:33;16.33;;;8.00;;
74042;SDS011;62384;53.600;10.040;2023-03-21T13:38:03;17.05;;;8.45;;
74042;SDS011;62384;53.600;10.040;2023-03-21T13:40:40;21.95;;;8.90;;
74042;SDS011;62384;53.600;10.040;2023-03-21T13:43:30;17.92;;;8.30;;
74042;SDS011;62384;53.600;10.040;2023-03-21T13:48:42;15.43;;;8.20;;
74042;SDS011;62384;53.600;10.040;2023-03-21T13:51:18;18.67;;;9.00;;
74042;SDS011;62384;53.600;10.040;2023-03-21T13:54:03;18.75;;;9.82;;
74042;SDS011;62384;53.600;10.040;2023-03-21T13:59:17;21.98;;;8.93;;
74042;SDS011;62384;53.600;10.040;2023-03-21T14:04:43;19.50;;;9.48;;
74042;SDS011;62384;53.600;10.040;2023-03-21T14:09:46;23.83;;;10.50;;
74042;SDS011;62384;53.600;10.040;2023-03-21T14:12:15;24.05;;;10.45;;
74042;SDS011;62384;53.600;10.040;2023-03-21T14:14:48;21.25;;;10.00;;
74042;SDS011;62384;53.600;10.040;2023-03-21T14:17:25;21.23;;;8.88;;
74042;SDS011;62384;53.600;10.040;2023-03-21T14:19:54;21.42;;;9.48;;
74042;SDS011;62384;53.600;10.040;2023-03-21T14:22:21;19.70;;;9.80;;
74042;SDS011;62384;53.600;10.040;2023-03-21T14:24:56;21.20;;;10.80;;
74042;SDS011;62384;53.600;10.040;2023-03-21T14:27:24;23.60;;;10.98;;
74042;SDS011;62384;53.600;10.040;2023-03-21T14:29:54;24.27;;;12.13;;
74042;SDS011;62384;53.600;10.040;2023-03-21T14:32:21;21.02;;;11.07;;
74042;SDS011;62384;53.600;10.040;2023-03-21T14:34:48;22.58;;;11.02;;
74042;SDS011;62384;53.600;10.040;2023-03-21T14:37:36;20.92;;;10.13;;
74042;SDS011;62384;53.600;10.040;2023-03-21T14:42:49;23.67;;;11.35;;
74042;SDS011;62384;53.600;10.040;2023-03-21T14:45:21;24.45;;;11.23;;
74042;SDS011;62384;53.600;10.040;2023-03-21T14:47:54;22.77;;;10.32;;
74042;SDS011;62384;53.600;10.040;2023-03-21T14:50:27;24.60;;;10.00;;
74042;SDS011;62384;53.600;10.040;2023-03-21T14:52:58;23.40;;;10.98;;
74042;SDS011;62384;53.600;10.040;2023-03-21T14:55:24;27.40;;;11.40;;
74042;SDS011;62384;53.600;10.040;2023-03-21T14:57:50;24.63;;;10.75;;
74042;SDS011;62384;53.600;10.040;2023-03-21T15:00:23;24.55;;;11.32;;
74042;SDS011;62384;53.600;10.040;2023-03-21T15:02:50;26.40;;;11.55;;
74042;SDS011;62384;53.600;10.040;2023-03-21T15:05:22;23.85;;;11.13;;
74042;SDS011;62384;53.600;10.040;2023-03-21T15:07:51;23.20;;;10.73;;
74042;SDS011;62384;53.600;10.040;2023-03-21T15:10:22;22.40;;;10.17;;
74042;SDS011;62384;53.600;10.040;2023-03-21T15:12:52;21.25;;;10.40;;
74042;SDS011;62384;53.600;10.040;2023-03-21T15:15:20;22.80;;;11.73;;
74042;SDS011;62384;53.600;10.040;2023-03-21T15:17:46;20.63;;;10.10;;
74042;SDS011;62384;53.600;10.040;2023-03-21T15:20:13;22.80;;;9.85;;
74042;SDS011;62384;53.600;10.040;2023-03-21T15:22:40;25.58;;;10.90;;
74042;SDS011;62384;53.600;10.040;2023-03-21T15:25:17;22.38;;;10.45;;
74042;SDS011;62384;53.600;10.040;2023-03-21T15:27:46;20.27;;;10.10;;
74042;SDS011;62384;53.600;10.040;2023-03-21T15:30:23;19.88;;;10.77;;
74042;SDS011;62384;53.600;10.040;2023-03-21T15:32:50;20.90;;;9.20;;
74042;SDS011;62384;53.600;10.040;2023-03-21T15:35:19;19.33;;;9.07;;
74042;SDS011;62384;53.600;10.040;2023-03-21T15:37:56;16.88;;;9.13;;
74042;SDS011;62384;53.600;10.040;2023-03-21T15:40:24;20.13;;;10.07;;
74042;SDS011;62384;53.600;10.040;2023-03-21T15:43:02;17.35;;;9.02;;
74042;SDS011;62384;53.600;10.040;2023-03-21T15:45:49;20.27;;;9.18;;
74042;SDS011;62384;53.600;10.040;2023-03-21T15:48:20;18.00;;;9.82;;
74042;SDS011;62384;53.600;10.040;2023-03-21T15:50:52;20.85;;;10.38;;
74042;SDS011;62384;53.600;10.040;2023-03-21T15:53:19;20.20;;;8.77;;